<?xml version="1.0" encoding="UTF-8" standalone="no" ?>
<gpx xmlns="http://www.topografix.com/GPX/1/1" xmlns:xsi="http://www.w3.org/2001/XMLSchema-instance" xsi:schemaLocation="http://www.topografix.com/GPX/1/1 http://www.topografix.com/GPX/1/1/gpx.xsd" version="1.1" creator="VisuGPX - https://www.visugpx.com">
  <metadata>
    <name>grande boucle bois chatel 2011</name>
    <desc><![CDATA[tracé gde boucle course Ufolep Bois de Châtel 2011]]></desc>
  </metadata>
  <trk>
    <name><![CDATA[Entrainement Jeunes VTT]]></name>
    <trkseg>
      <trkpt lat="45.92622" lon="3.05229">
        <ele>567.79565429688</ele>
        <time>2011-03-26T14:24:43Z</time>
      </trkpt>
      <trkpt lat="45.92622" lon="3.05226">
        <ele>567.79565429688</ele>
        <time>2011-03-26T14:24:45Z</time>
      </trkpt>
      <trkpt lat="45.92626" lon="3.05213">
        <ele>569.23779296875</ele>
        <time>2011-03-26T14:24:51Z</time>
      </trkpt>
      <trkpt lat="45.92632" lon="3.05215">
        <ele>569.23779296875</ele>
        <time>2011-03-26T14:24:55Z</time>
      </trkpt>
      <trkpt lat="45.9264" lon="3.05221">
        <ele>568.2763671875</ele>
        <time>2011-03-26T14:24:59Z</time>
      </trkpt>
      <trkpt lat="45.92651" lon="3.05237">
        <ele>564.43115234375</ele>
        <time>2011-03-26T14:25:05Z</time>
      </trkpt>
      <trkpt lat="45.92654" lon="3.05252">
        <ele>557.7021484375</ele>
        <time>2011-03-26T14:25:10Z</time>
      </trkpt>
      <trkpt lat="45.92657" lon="3.0526">
        <ele>554.81787109375</ele>
        <time>2011-03-26T14:25:12Z</time>
      </trkpt>
      <trkpt lat="45.92662" lon="3.05272">
        <ele>552.41455078125</ele>
        <time>2011-03-26T14:25:17Z</time>
      </trkpt>
      <trkpt lat="45.92656" lon="3.05283">
        <ele>552.41455078125</ele>
        <time>2011-03-26T14:25:20Z</time>
      </trkpt>
      <trkpt lat="45.92639" lon="3.05298">
        <ele>554.33740234375</ele>
        <time>2011-03-26T14:25:24Z</time>
      </trkpt>
      <trkpt lat="45.92635" lon="3.05301">
        <ele>553.85668945312</ele>
        <time>2011-03-26T14:25:25Z</time>
      </trkpt>
      <trkpt lat="45.92623" lon="3.05317">
        <ele>550.97265625</ele>
        <time>2011-03-26T14:25:28Z</time>
      </trkpt>
      <trkpt lat="45.92617" lon="3.05327">
        <ele>550.4921875</ele>
        <time>2011-03-26T14:25:30Z</time>
      </trkpt>
      <trkpt lat="45.92608" lon="3.05336">
        <ele>550.4921875</ele>
        <time>2011-03-26T14:25:33Z</time>
      </trkpt>
      <trkpt lat="45.92588" lon="3.05353">
        <ele>551.93408203125</ele>
        <time>2011-03-26T14:25:38Z</time>
      </trkpt>
      <trkpt lat="45.92574" lon="3.05367">
        <ele>551.93408203125</ele>
        <time>2011-03-26T14:25:41Z</time>
      </trkpt>
      <trkpt lat="45.92553" lon="3.05396">
        <ele>552.41455078125</ele>
        <time>2011-03-26T14:25:46Z</time>
      </trkpt>
      <trkpt lat="45.92537" lon="3.05427">
        <ele>552.41455078125</ele>
        <time>2011-03-26T14:25:50Z</time>
      </trkpt>
      <trkpt lat="45.92515" lon="3.05444">
        <ele>554.33740234375</ele>
        <time>2011-03-26T14:25:54Z</time>
      </trkpt>
      <trkpt lat="45.92493" lon="3.05447">
        <ele>556.26000976562</ele>
        <time>2011-03-26T14:25:58Z</time>
      </trkpt>
      <trkpt lat="45.92484" lon="3.05447">
        <ele>557.22143554688</ele>
        <time>2011-03-26T14:26:00Z</time>
      </trkpt>
      <trkpt lat="45.92463" lon="3.05444">
        <ele>557.22143554688</ele>
        <time>2011-03-26T14:26:04Z</time>
      </trkpt>
      <trkpt lat="45.92428" lon="3.05435">
        <ele>558.66333007812</ele>
        <time>2011-03-26T14:26:09Z</time>
      </trkpt>
      <trkpt lat="45.92385" lon="3.05418">
        <ele>560.5859375</ele>
        <time>2011-03-26T14:26:14Z</time>
      </trkpt>
      <trkpt lat="45.92346" lon="3.05399">
        <ele>559.62475585938</ele>
        <time>2011-03-26T14:26:18Z</time>
      </trkpt>
      <trkpt lat="45.92308" lon="3.05377">
        <ele>554.81787109375</ele>
        <time>2011-03-26T14:26:22Z</time>
      </trkpt>
      <trkpt lat="45.92292" lon="3.05365">
        <ele>552.89526367188</ele>
        <time>2011-03-26T14:26:24Z</time>
      </trkpt>
      <trkpt lat="45.92258" lon="3.05324">
        <ele>548.5693359375</ele>
        <time>2011-03-26T14:26:29Z</time>
      </trkpt>
      <trkpt lat="45.92248" lon="3.05304">
        <ele>547.60815429688</ele>
        <time>2011-03-26T14:26:31Z</time>
      </trkpt>
      <trkpt lat="45.92228" lon="3.05247">
        <ele>545.20483398438</ele>
        <time>2011-03-26T14:26:36Z</time>
      </trkpt>
      <trkpt lat="45.92213" lon="3.05228">
        <ele>543.28210449219</ele>
        <time>2011-03-26T14:26:40Z</time>
      </trkpt>
      <trkpt lat="45.92202" lon="3.0523">
        <ele>541.35949707031</ele>
        <time>2011-03-26T14:26:43Z</time>
      </trkpt>
      <trkpt lat="45.92188" lon="3.05231">
        <ele>539.43688964844</ele>
        <time>2011-03-26T14:26:46Z</time>
      </trkpt>
      <trkpt lat="45.92168" lon="3.05243">
        <ele>535.11096191406</ele>
        <time>2011-03-26T14:26:50Z</time>
      </trkpt>
      <trkpt lat="45.92159" lon="3.05259">
        <ele>528.3818359375</ele>
        <time>2011-03-26T14:26:54Z</time>
      </trkpt>
      <trkpt lat="45.92156" lon="3.05277">
        <ele>523.5751953125</ele>
        <time>2011-03-26T14:26:58Z</time>
      </trkpt>
      <trkpt lat="45.9215" lon="3.05293">
        <ele>519.72985839844</ele>
        <time>2011-03-26T14:27:02Z</time>
      </trkpt>
      <trkpt lat="45.92153" lon="3.05298">
        <ele>518.28784179688</ele>
        <time>2011-03-26T14:27:04Z</time>
      </trkpt>
      <trkpt lat="45.92168" lon="3.05313">
        <ele>515.40405273438</ele>
        <time>2011-03-26T14:27:08Z</time>
      </trkpt>
      <trkpt lat="45.92179" lon="3.05325">
        <ele>513.96203613281</ele>
        <time>2011-03-26T14:27:10Z</time>
      </trkpt>
      <trkpt lat="45.92191" lon="3.05344">
        <ele>512.52001953125</ele>
        <time>2011-03-26T14:27:13Z</time>
      </trkpt>
      <trkpt lat="45.92209" lon="3.05386">
        <ele>510.11669921875</ele>
        <time>2011-03-26T14:27:20Z</time>
      </trkpt>
      <trkpt lat="45.92233" lon="3.05423">
        <ele>509.15539550781</ele>
        <time>2011-03-26T14:27:27Z</time>
      </trkpt>
      <trkpt lat="45.92265" lon="3.05463">
        <ele>511.55871582031</ele>
        <time>2011-03-26T14:27:35Z</time>
      </trkpt>
      <trkpt lat="45.92277" lon="3.05475">
        <ele>512.03942871094</ele>
        <time>2011-03-26T14:27:38Z</time>
      </trkpt>
      <trkpt lat="45.92281" lon="3.05478">
        <ele>512.52001953125</ele>
        <time>2011-03-26T14:27:39Z</time>
      </trkpt>
      <trkpt lat="45.92289" lon="3.05486">
        <ele>512.52001953125</ele>
        <time>2011-03-26T14:27:41Z</time>
      </trkpt>
      <trkpt lat="45.92314" lon="3.05503">
        <ele>511.07800292969</ele>
        <time>2011-03-26T14:27:47Z</time>
      </trkpt>
      <trkpt lat="45.92347" lon="3.05522">
        <ele>510.11669921875</ele>
        <time>2011-03-26T14:27:54Z</time>
      </trkpt>
      <trkpt lat="45.92375" lon="3.05549">
        <ele>511.07800292969</ele>
        <time>2011-03-26T14:28:01Z</time>
      </trkpt>
      <trkpt lat="45.92407" lon="3.05578">
        <ele>512.03942871094</ele>
        <time>2011-03-26T14:28:09Z</time>
      </trkpt>
      <trkpt lat="45.92431" lon="3.05598">
        <ele>513.96203613281</ele>
        <time>2011-03-26T14:28:15Z</time>
      </trkpt>
      <trkpt lat="45.92447" lon="3.05609">
        <ele>513.96203613281</ele>
        <time>2011-03-26T14:28:19Z</time>
      </trkpt>
      <trkpt lat="45.92459" lon="3.05617">
        <ele>513.00073242188</ele>
        <time>2011-03-26T14:28:22Z</time>
      </trkpt>
      <trkpt lat="45.92475" lon="3.05635">
        <ele>512.03942871094</ele>
        <time>2011-03-26T14:28:26Z</time>
      </trkpt>
      <trkpt lat="45.92492" lon="3.05659">
        <ele>510.59729003906</ele>
        <time>2011-03-26T14:28:29Z</time>
      </trkpt>
      <trkpt lat="45.92503" lon="3.05671">
        <ele>510.11669921875</ele>
        <time>2011-03-26T14:28:31Z</time>
      </trkpt>
      <trkpt lat="45.92523" lon="3.05692">
        <ele>513.00073242188</ele>
        <time>2011-03-26T14:28:35Z</time>
      </trkpt>
      <trkpt lat="45.92532" lon="3.05686">
        <ele>511.55871582031</ele>
        <time>2011-03-26T14:28:38Z</time>
      </trkpt>
      <trkpt lat="45.92534" lon="3.05683">
        <ele>511.07800292969</ele>
        <time>2011-03-26T14:28:39Z</time>
      </trkpt>
      <trkpt lat="45.9254" lon="3.05664">
        <ele>508.67468261719</ele>
        <time>2011-03-26T14:28:45Z</time>
      </trkpt>
      <trkpt lat="45.92543" lon="3.05646">
        <ele>508.19409179688</ele>
        <time>2011-03-26T14:28:50Z</time>
      </trkpt>
      <trkpt lat="45.92546" lon="3.05642">
        <ele>508.67468261719</ele>
        <time>2011-03-26T14:28:52Z</time>
      </trkpt>
      <trkpt lat="45.92567" lon="3.05639">
        <ele>523.5751953125</ele>
        <time>2011-03-26T14:30:12Z</time>
      </trkpt>
      <trkpt lat="45.92565" lon="3.0566">
        <ele>517.80725097656</ele>
        <time>2011-03-26T14:30:17Z</time>
      </trkpt>
      <trkpt lat="45.92568" lon="3.05688">
        <ele>516.84594726562</ele>
        <time>2011-03-26T14:30:20Z</time>
      </trkpt>
      <trkpt lat="45.9257" lon="3.05751">
        <ele>514.44262695312</ele>
        <time>2011-03-26T14:30:25Z</time>
      </trkpt>
      <trkpt lat="45.92575" lon="3.05776">
        <ele>513.00073242188</ele>
        <time>2011-03-26T14:30:27Z</time>
      </trkpt>
      <trkpt lat="45.92587" lon="3.05812">
        <ele>507.71350097656</ele>
        <time>2011-03-26T14:30:30Z</time>
      </trkpt>
      <trkpt lat="45.92592" lon="3.05837">
        <ele>502.90673828125</ele>
        <time>2011-03-26T14:30:32Z</time>
      </trkpt>
      <trkpt lat="45.92598" lon="3.05869">
        <ele>496.177734375</ele>
        <time>2011-03-26T14:30:36Z</time>
      </trkpt>
      <trkpt lat="45.92604" lon="3.05875">
        <ele>491.85168457031</ele>
        <time>2011-03-26T14:30:39Z</time>
      </trkpt>
      <trkpt lat="45.92606" lon="3.05873">
        <ele>489.92907714844</ele>
        <time>2011-03-26T14:30:42Z</time>
      </trkpt>
      <trkpt lat="45.92615" lon="3.05875">
        <ele>486.564453125</ele>
        <time>2011-03-26T14:30:50Z</time>
      </trkpt>
      <trkpt lat="45.92622" lon="3.0588">
        <ele>487.52563476562</ele>
        <time>2011-03-26T14:30:55Z</time>
      </trkpt>
      <trkpt lat="45.92625" lon="3.05887">
        <ele>488.48718261719</ele>
        <time>2011-03-26T14:30:59Z</time>
      </trkpt>
      <trkpt lat="45.92631" lon="3.05898">
        <ele>489.44836425781</ele>
        <time>2011-03-26T14:31:04Z</time>
      </trkpt>
      <trkpt lat="45.92651" lon="3.05909">
        <ele>488.00646972656</ele>
        <time>2011-03-26T14:31:10Z</time>
      </trkpt>
      <trkpt lat="45.92669" lon="3.05924">
        <ele>487.04504394531</ele>
        <time>2011-03-26T14:31:14Z</time>
      </trkpt>
      <trkpt lat="45.92682" lon="3.05943">
        <ele>487.04504394531</ele>
        <time>2011-03-26T14:31:18Z</time>
      </trkpt>
      <trkpt lat="45.92692" lon="3.05955">
        <ele>488.48718261719</ele>
        <time>2011-03-26T14:31:21Z</time>
      </trkpt>
      <trkpt lat="45.92706" lon="3.05967">
        <ele>490.40979003906</ele>
        <time>2011-03-26T14:31:25Z</time>
      </trkpt>
      <trkpt lat="45.92717" lon="3.05973">
        <ele>492.33239746094</ele>
        <time>2011-03-26T14:31:28Z</time>
      </trkpt>
      <trkpt lat="45.9274" lon="3.05978">
        <ele>492.33239746094</ele>
        <time>2011-03-26T14:31:33Z</time>
      </trkpt>
      <trkpt lat="45.9276" lon="3.05985">
        <ele>494.73559570312</ele>
        <time>2011-03-26T14:31:37Z</time>
      </trkpt>
      <trkpt lat="45.92769" lon="3.05992">
        <ele>495.21618652344</ele>
        <time>2011-03-26T14:31:39Z</time>
      </trkpt>
      <trkpt lat="45.92801" lon="3.06023">
        <ele>498.10034179688</ele>
        <time>2011-03-26T14:31:46Z</time>
      </trkpt>
      <trkpt lat="45.92836" lon="3.06052">
        <ele>497.61962890625</ele>
        <time>2011-03-26T14:31:52Z</time>
      </trkpt>
      <trkpt lat="45.92873" lon="3.06082">
        <ele>496.65832519531</ele>
        <time>2011-03-26T14:31:58Z</time>
      </trkpt>
      <trkpt lat="45.92912" lon="3.06124">
        <ele>495.69689941406</ele>
        <time>2011-03-26T14:32:04Z</time>
      </trkpt>
      <trkpt lat="45.92927" lon="3.06138">
        <ele>494.73559570312</ele>
        <time>2011-03-26T14:32:06Z</time>
      </trkpt>
      <trkpt lat="45.92948" lon="3.06158">
        <ele>492.81298828125</ele>
        <time>2011-03-26T14:32:09Z</time>
      </trkpt>
      <trkpt lat="45.9296" lon="3.06182">
        <ele>488.9677734375</ele>
        <time>2011-03-26T14:32:12Z</time>
      </trkpt>
      <trkpt lat="45.92962" lon="3.06205">
        <ele>486.08374023438</ele>
        <time>2011-03-26T14:32:15Z</time>
      </trkpt>
      <trkpt lat="45.92969" lon="3.06213">
        <ele>483.68041992188</ele>
        <time>2011-03-26T14:32:18Z</time>
      </trkpt>
      <trkpt lat="45.92975" lon="3.06224">
        <ele>480.79663085938</ele>
        <time>2011-03-26T14:32:21Z</time>
      </trkpt>
      <trkpt lat="45.92986" lon="3.06264">
        <ele>475.50927734375</ele>
        <time>2011-03-26T14:32:26Z</time>
      </trkpt>
      <trkpt lat="45.92992" lon="3.06284">
        <ele>472.62536621094</ele>
        <time>2011-03-26T14:32:30Z</time>
      </trkpt>
      <trkpt lat="45.92995" lon="3.0629">
        <ele>472.62536621094</ele>
        <time>2011-03-26T14:32:31Z</time>
      </trkpt>
      <trkpt lat="45.93008" lon="3.06316">
        <ele>468.78002929688</ele>
        <time>2011-03-26T14:32:35Z</time>
      </trkpt>
      <trkpt lat="45.93015" lon="3.06329">
        <ele>466.857421875</ele>
        <time>2011-03-26T14:32:37Z</time>
      </trkpt>
      <trkpt lat="45.9302" lon="3.06348">
        <ele>463.01208496094</ele>
        <time>2011-03-26T14:32:40Z</time>
      </trkpt>
      <trkpt lat="45.93031" lon="3.06359">
        <ele>457.24426269531</ele>
        <time>2011-03-26T14:32:45Z</time>
      </trkpt>
      <trkpt lat="45.93032" lon="3.06368">
        <ele>453.39892578125</ele>
        <time>2011-03-26T14:32:47Z</time>
      </trkpt>
      <trkpt lat="45.93029" lon="3.06399">
        <ele>445.70837402344</ele>
        <time>2011-03-26T14:32:52Z</time>
      </trkpt>
      <trkpt lat="45.93036" lon="3.06418">
        <ele>440.90185546875</ele>
        <time>2011-03-26T14:32:55Z</time>
      </trkpt>
      <trkpt lat="45.93041" lon="3.06432">
        <ele>440.90185546875</ele>
        <time>2011-03-26T14:32:57Z</time>
      </trkpt>
      <trkpt lat="45.93048" lon="3.06437">
        <ele>440.90185546875</ele>
        <time>2011-03-26T14:33:01Z</time>
      </trkpt>
      <trkpt lat="45.93056" lon="3.06419">
        <ele>441.38244628906</ele>
        <time>2011-03-26T14:33:06Z</time>
      </trkpt>
      <trkpt lat="45.93061" lon="3.06408">
        <ele>442.34387207031</ele>
        <time>2011-03-26T14:33:10Z</time>
      </trkpt>
      <trkpt lat="45.93064" lon="3.06377">
        <ele>443.30505371094</ele>
        <time>2011-03-26T14:33:18Z</time>
      </trkpt>
      <trkpt lat="45.93066" lon="3.06349">
        <ele>442.34387207031</ele>
        <time>2011-03-26T14:33:22Z</time>
      </trkpt>
      <trkpt lat="45.93067" lon="3.06306">
        <ele>441.38244628906</ele>
        <time>2011-03-26T14:33:26Z</time>
      </trkpt>
      <trkpt lat="45.93067" lon="3.06294">
        <ele>441.86315917969</ele>
        <time>2011-03-26T14:33:27Z</time>
      </trkpt>
      <trkpt lat="45.93063" lon="3.06264">
        <ele>442.82446289062</ele>
        <time>2011-03-26T14:33:30Z</time>
      </trkpt>
      <trkpt lat="45.93058" lon="3.06239">
        <ele>443.30505371094</ele>
        <time>2011-03-26T14:33:33Z</time>
      </trkpt>
      <trkpt lat="45.9305" lon="3.062">
        <ele>440.42126464844</ele>
        <time>2011-03-26T14:33:38Z</time>
      </trkpt>
      <trkpt lat="45.93048" lon="3.06183">
        <ele>438.97912597656</ele>
        <time>2011-03-26T14:33:40Z</time>
      </trkpt>
      <trkpt lat="45.93052" lon="3.06134">
        <ele>438.97912597656</ele>
        <time>2011-03-26T14:33:45Z</time>
      </trkpt>
      <trkpt lat="45.9305" lon="3.06124">
        <ele>438.49853515625</ele>
        <time>2011-03-26T14:33:46Z</time>
      </trkpt>
      <trkpt lat="45.93046" lon="3.06106">
        <ele>438.01782226562</ele>
        <time>2011-03-26T14:33:48Z</time>
      </trkpt>
      <trkpt lat="45.9304" lon="3.06073">
        <ele>438.01782226562</ele>
        <time>2011-03-26T14:33:52Z</time>
      </trkpt>
      <trkpt lat="45.93038" lon="3.06052">
        <ele>438.01782226562</ele>
        <time>2011-03-26T14:33:55Z</time>
      </trkpt>
      <trkpt lat="45.93042" lon="3.06015">
        <ele>437.537109375</ele>
        <time>2011-03-26T14:34:00Z</time>
      </trkpt>
      <trkpt lat="45.93045" lon="3.05959">
        <ele>438.01782226562</ele>
        <time>2011-03-26T14:34:07Z</time>
      </trkpt>
      <trkpt lat="45.93052" lon="3.05928">
        <ele>441.38244628906</ele>
        <time>2011-03-26T14:34:12Z</time>
      </trkpt>
      <trkpt lat="45.93057" lon="3.05902">
        <ele>445.22766113281</ele>
        <time>2011-03-26T14:34:17Z</time>
      </trkpt>
      <trkpt lat="45.93064" lon="3.05881">
        <ele>444.7470703125</ele>
        <time>2011-03-26T14:34:21Z</time>
      </trkpt>
      <trkpt lat="45.93077" lon="3.0585">
        <ele>444.7470703125</ele>
        <time>2011-03-26T14:34:26Z</time>
      </trkpt>
      <trkpt lat="45.93082" lon="3.05834">
        <ele>446.18908691406</ele>
        <time>2011-03-26T14:34:29Z</time>
      </trkpt>
      <trkpt lat="45.93097" lon="3.05797">
        <ele>448.59240722656</ele>
        <time>2011-03-26T14:34:36Z</time>
      </trkpt>
      <trkpt lat="45.93101" lon="3.05786">
        <ele>448.11181640625</ele>
        <time>2011-03-26T14:34:38Z</time>
      </trkpt>
      <trkpt lat="45.93114" lon="3.0575">
        <ele>449.07299804688</ele>
        <time>2011-03-26T14:34:45Z</time>
      </trkpt>
      <trkpt lat="45.93116" lon="3.05743">
        <ele>448.11181640625</ele>
        <time>2011-03-26T14:34:46Z</time>
      </trkpt>
      <trkpt lat="45.93126" lon="3.05709">
        <ele>447.15026855469</ele>
        <time>2011-03-26T14:34:51Z</time>
      </trkpt>
      <trkpt lat="45.93128" lon="3.05694">
        <ele>446.18908691406</ele>
        <time>2011-03-26T14:34:54Z</time>
      </trkpt>
      <trkpt lat="45.93126" lon="3.05669">
        <ele>446.66967773438</ele>
        <time>2011-03-26T14:34:59Z</time>
      </trkpt>
      <trkpt lat="45.93123" lon="3.05673">
        <ele>444.7470703125</ele>
        <time>2011-03-26T14:35:02Z</time>
      </trkpt>
      <trkpt lat="45.93122" lon="3.05675">
        <ele>444.26647949219</ele>
        <time>2011-03-26T14:35:03Z</time>
      </trkpt>
      <trkpt lat="45.93108" lon="3.05698">
        <ele>443.30505371094</ele>
        <time>2011-03-26T14:35:08Z</time>
      </trkpt>
      <trkpt lat="45.93102" lon="3.05725">
        <ele>446.66967773438</ele>
        <time>2011-03-26T14:35:12Z</time>
      </trkpt>
      <trkpt lat="45.931" lon="3.05732">
        <ele>450.51501464844</ele>
        <time>2011-03-26T14:35:13Z</time>
      </trkpt>
      <trkpt lat="45.93096" lon="3.05745">
        <ele>453.87963867188</ele>
        <time>2011-03-26T14:35:15Z</time>
      </trkpt>
      <trkpt lat="45.93088" lon="3.05765">
        <ele>460.12817382812</ele>
        <time>2011-03-26T14:35:18Z</time>
      </trkpt>
      <trkpt lat="45.9308" lon="3.05784">
        <ele>463.01208496094</ele>
        <time>2011-03-26T14:35:21Z</time>
      </trkpt>
      <trkpt lat="45.93078" lon="3.05789">
        <ele>463.01208496094</ele>
        <time>2011-03-26T14:35:22Z</time>
      </trkpt>
      <trkpt lat="45.93066" lon="3.05808">
        <ele>463.01208496094</ele>
        <time>2011-03-26T14:35:26Z</time>
      </trkpt>
      <trkpt lat="45.9306" lon="3.05821">
        <ele>464.4541015625</ele>
        <time>2011-03-26T14:35:29Z</time>
      </trkpt>
      <trkpt lat="45.93047" lon="3.05843">
        <ele>469.74133300781</ele>
        <time>2011-03-26T14:35:35Z</time>
      </trkpt>
      <trkpt lat="45.9304" lon="3.05855">
        <ele>469.2607421875</ele>
        <time>2011-03-26T14:35:39Z</time>
      </trkpt>
      <trkpt lat="45.93037" lon="3.05861">
        <ele>469.2607421875</ele>
        <time>2011-03-26T14:35:41Z</time>
      </trkpt>
      <trkpt lat="45.93026" lon="3.05879">
        <ele>468.78002929688</ele>
        <time>2011-03-26T14:35:47Z</time>
      </trkpt>
      <trkpt lat="45.93013" lon="3.05905">
        <ele>476.47058105469</ele>
        <time>2011-03-26T14:35:51Z</time>
      </trkpt>
      <trkpt lat="45.93006" lon="3.05918">
        <ele>480.79663085938</ele>
        <time>2011-03-26T14:35:53Z</time>
      </trkpt>
      <trkpt lat="45.92997" lon="3.05949">
        <ele>484.64184570312</ele>
        <time>2011-03-26T14:35:57Z</time>
      </trkpt>
      <trkpt lat="45.92998" lon="3.05968">
        <ele>482.71923828125</ele>
        <time>2011-03-26T14:36:01Z</time>
      </trkpt>
      <trkpt lat="45.92992" lon="3.05991">
        <ele>481.27722167969</ele>
        <time>2011-03-26T14:36:08Z</time>
      </trkpt>
      <trkpt lat="45.9299" lon="3.06006">
        <ele>480.79663085938</ele>
        <time>2011-03-26T14:36:13Z</time>
      </trkpt>
      <trkpt lat="45.92987" lon="3.0602">
        <ele>482.23852539062</ele>
        <time>2011-03-26T14:36:18Z</time>
      </trkpt>
      <trkpt lat="45.92985" lon="3.06039">
        <ele>485.12243652344</ele>
        <time>2011-03-26T14:36:24Z</time>
      </trkpt>
      <trkpt lat="45.92984" lon="3.06058">
        <ele>487.04504394531</ele>
        <time>2011-03-26T14:36:29Z</time>
      </trkpt>
      <trkpt lat="45.92984" lon="3.06079">
        <ele>489.44836425781</ele>
        <time>2011-03-26T14:36:35Z</time>
      </trkpt>
      <trkpt lat="45.92983" lon="3.06082">
        <ele>489.44836425781</ele>
        <time>2011-03-26T14:36:36Z</time>
      </trkpt>
      <trkpt lat="45.92983" lon="3.06099">
        <ele>489.44836425781</ele>
        <time>2011-03-26T14:36:42Z</time>
      </trkpt>
      <trkpt lat="45.92984" lon="3.06113">
        <ele>490.89038085938</ele>
        <time>2011-03-26T14:36:47Z</time>
      </trkpt>
      <trkpt lat="45.92984" lon="3.06134">
        <ele>491.85168457031</ele>
        <time>2011-03-26T14:36:53Z</time>
      </trkpt>
      <trkpt lat="45.92983" lon="3.06153">
        <ele>490.40979003906</ele>
        <time>2011-03-26T14:36:59Z</time>
      </trkpt>
      <trkpt lat="45.92978" lon="3.06174">
        <ele>487.52563476562</ele>
        <time>2011-03-26T14:37:05Z</time>
      </trkpt>
      <trkpt lat="45.92972" lon="3.06203">
        <ele>485.60302734375</ele>
        <time>2011-03-26T14:37:12Z</time>
      </trkpt>
      <trkpt lat="45.92968" lon="3.06207">
        <ele>485.12243652344</ele>
        <time>2011-03-26T14:37:14Z</time>
      </trkpt>
      <trkpt lat="45.9296" lon="3.06201">
        <ele>485.12243652344</ele>
        <time>2011-03-26T14:37:19Z</time>
      </trkpt>
      <trkpt lat="45.92962" lon="3.06193">
        <ele>485.12243652344</ele>
        <time>2011-03-26T14:37:22Z</time>
      </trkpt>
      <trkpt lat="45.92965" lon="3.06179">
        <ele>485.60302734375</ele>
        <time>2011-03-26T14:37:28Z</time>
      </trkpt>
      <trkpt lat="45.92958" lon="3.06167">
        <ele>486.564453125</ele>
        <time>2011-03-26T14:37:34Z</time>
      </trkpt>
      <trkpt lat="45.92956" lon="3.06156">
        <ele>488.00646972656</ele>
        <time>2011-03-26T14:37:39Z</time>
      </trkpt>
      <trkpt lat="45.92956" lon="3.06154">
        <ele>488.48718261719</ele>
        <time>2011-03-26T14:37:40Z</time>
      </trkpt>
      <trkpt lat="45.92951" lon="3.06141">
        <ele>488.9677734375</ele>
        <time>2011-03-26T14:37:47Z</time>
      </trkpt>
      <trkpt lat="45.92936" lon="3.06126">
        <ele>489.92907714844</ele>
        <time>2011-03-26T14:37:56Z</time>
      </trkpt>
      <trkpt lat="45.92921" lon="3.0611">
        <ele>492.81298828125</ele>
        <time>2011-03-26T14:38:06Z</time>
      </trkpt>
      <trkpt lat="45.92908" lon="3.06097">
        <ele>495.69689941406</ele>
        <time>2011-03-26T14:38:14Z</time>
      </trkpt>
      <trkpt lat="45.92897" lon="3.06084">
        <ele>499.0615234375</ele>
        <time>2011-03-26T14:38:22Z</time>
      </trkpt>
      <trkpt lat="45.92887" lon="3.06066">
        <ele>503.38745117188</ele>
        <time>2011-03-26T14:38:31Z</time>
      </trkpt>
      <trkpt lat="45.9288" lon="3.06053">
        <ele>504.34887695312</ele>
        <time>2011-03-26T14:38:38Z</time>
      </trkpt>
      <trkpt lat="45.92875" lon="3.06041">
        <ele>504.34887695312</ele>
        <time>2011-03-26T14:38:44Z</time>
      </trkpt>
      <trkpt lat="45.92868" lon="3.06031">
        <ele>504.82946777344</ele>
        <time>2011-03-26T14:38:50Z</time>
      </trkpt>
      <trkpt lat="45.92859" lon="3.06018">
        <ele>505.79089355469</ele>
        <time>2011-03-26T14:38:57Z</time>
      </trkpt>
      <trkpt lat="45.92855" lon="3.06006">
        <ele>507.71350097656</ele>
        <time>2011-03-26T14:39:03Z</time>
      </trkpt>
      <trkpt lat="45.92853" lon="3.06003">
        <ele>508.19409179688</ele>
        <time>2011-03-26T14:39:05Z</time>
      </trkpt>
      <trkpt lat="45.92848" lon="3.05994">
        <ele>511.07800292969</ele>
        <time>2011-03-26T14:39:11Z</time>
      </trkpt>
      <trkpt lat="45.92847" lon="3.05983">
        <ele>511.55871582031</ele>
        <time>2011-03-26T14:39:17Z</time>
      </trkpt>
      <trkpt lat="45.92842" lon="3.0598">
        <ele>512.52001953125</ele>
        <time>2011-03-26T14:39:21Z</time>
      </trkpt>
      <trkpt lat="45.92836" lon="3.05969">
        <ele>513.96203613281</ele>
        <time>2011-03-26T14:39:28Z</time>
      </trkpt>
      <trkpt lat="45.92838" lon="3.0596">
        <ele>515.88464355469</ele>
        <time>2011-03-26T14:39:34Z</time>
      </trkpt>
      <trkpt lat="45.92846" lon="3.05957">
        <ele>517.80725097656</ele>
        <time>2011-03-26T14:39:40Z</time>
      </trkpt>
      <trkpt lat="45.92852" lon="3.05964">
        <ele>518.7685546875</ele>
        <time>2011-03-26T14:39:46Z</time>
      </trkpt>
      <trkpt lat="45.92859" lon="3.05968">
        <ele>517.80725097656</ele>
        <time>2011-03-26T14:39:52Z</time>
      </trkpt>
      <trkpt lat="45.92867" lon="3.05969">
        <ele>517.32666015625</ele>
        <time>2011-03-26T14:39:57Z</time>
      </trkpt>
      <trkpt lat="45.92868" lon="3.0596">
        <ele>517.32666015625</ele>
        <time>2011-03-26T14:40:02Z</time>
      </trkpt>
      <trkpt lat="45.92857" lon="3.05944">
        <ele>519.24926757812</ele>
        <time>2011-03-26T14:40:10Z</time>
      </trkpt>
      <trkpt lat="45.92847" lon="3.05927">
        <ele>521.17199707031</ele>
        <time>2011-03-26T14:40:18Z</time>
      </trkpt>
      <trkpt lat="45.92839" lon="3.05914">
        <ele>523.09460449219</ele>
        <time>2011-03-26T14:40:25Z</time>
      </trkpt>
      <trkpt lat="45.92836" lon="3.05908">
        <ele>523.5751953125</ele>
        <time>2011-03-26T14:40:28Z</time>
      </trkpt>
      <trkpt lat="45.92832" lon="3.059">
        <ele>526.45910644531</ele>
        <time>2011-03-26T14:40:34Z</time>
      </trkpt>
      <trkpt lat="45.92831" lon="3.05898">
        <ele>526.93981933594</ele>
        <time>2011-03-26T14:40:35Z</time>
      </trkpt>
      <trkpt lat="45.9282" lon="3.05878">
        <ele>528.3818359375</ele>
        <time>2011-03-26T14:40:45Z</time>
      </trkpt>
      <trkpt lat="45.92813" lon="3.05866">
        <ele>528.3818359375</ele>
        <time>2011-03-26T14:40:51Z</time>
      </trkpt>
      <trkpt lat="45.92805" lon="3.05848">
        <ele>530.78515625</ele>
        <time>2011-03-26T14:40:59Z</time>
      </trkpt>
      <trkpt lat="45.92802" lon="3.05834">
        <ele>531.74633789062</ele>
        <time>2011-03-26T14:41:06Z</time>
      </trkpt>
      <trkpt lat="45.928" lon="3.05823">
        <ele>532.22705078125</ele>
        <time>2011-03-26T14:41:12Z</time>
      </trkpt>
      <trkpt lat="45.92796" lon="3.05807">
        <ele>535.11096191406</ele>
        <time>2011-03-26T14:41:19Z</time>
      </trkpt>
      <trkpt lat="45.9279" lon="3.05791">
        <ele>538.95629882812</ele>
        <time>2011-03-26T14:41:27Z</time>
      </trkpt>
      <trkpt lat="45.92785" lon="3.05778">
        <ele>541.35949707031</ele>
        <time>2011-03-26T14:41:34Z</time>
      </trkpt>
      <trkpt lat="45.92782" lon="3.05765">
        <ele>541.84020996094</ele>
        <time>2011-03-26T14:41:41Z</time>
      </trkpt>
      <trkpt lat="45.9278" lon="3.05757">
        <ele>541.84020996094</ele>
        <time>2011-03-26T14:41:45Z</time>
      </trkpt>
      <trkpt lat="45.92784" lon="3.0575">
        <ele>541.84020996094</ele>
        <time>2011-03-26T14:41:52Z</time>
      </trkpt>
      <trkpt lat="45.92786" lon="3.05753">
        <ele>542.80151367188</ele>
        <time>2011-03-26T14:41:55Z</time>
      </trkpt>
      <trkpt lat="45.92797" lon="3.05766">
        <ele>541.84020996094</ele>
        <time>2011-03-26T14:42:03Z</time>
      </trkpt>
      <trkpt lat="45.92804" lon="3.05773">
        <ele>542.32092285156</ele>
        <time>2011-03-26T14:42:08Z</time>
      </trkpt>
      <trkpt lat="45.92813" lon="3.05781">
        <ele>542.32092285156</ele>
        <time>2011-03-26T14:42:13Z</time>
      </trkpt>
      <trkpt lat="45.92826" lon="3.05794">
        <ele>541.84020996094</ele>
        <time>2011-03-26T14:42:21Z</time>
      </trkpt>
      <trkpt lat="45.92829" lon="3.05796">
        <ele>541.84020996094</ele>
        <time>2011-03-26T14:42:23Z</time>
      </trkpt>
      <trkpt lat="45.9284" lon="3.05803">
        <ele>541.84020996094</ele>
        <time>2011-03-26T14:42:29Z</time>
      </trkpt>
      <trkpt lat="45.92849" lon="3.05806">
        <ele>541.35949707031</ele>
        <time>2011-03-26T14:42:34Z</time>
      </trkpt>
      <trkpt lat="45.92862" lon="3.05805">
        <ele>542.32092285156</ele>
        <time>2011-03-26T14:42:40Z</time>
      </trkpt>
      <trkpt lat="45.9287" lon="3.05804">
        <ele>543.76281738281</ele>
        <time>2011-03-26T14:42:44Z</time>
      </trkpt>
      <trkpt lat="45.92874" lon="3.05801">
        <ele>544.24365234375</ele>
        <time>2011-03-26T14:42:46Z</time>
      </trkpt>
      <trkpt lat="45.92878" lon="3.05797">
        <ele>544.72424316406</ele>
        <time>2011-03-26T14:42:49Z</time>
      </trkpt>
      <trkpt lat="45.92887" lon="3.05781">
        <ele>544.24365234375</ele>
        <time>2011-03-26T14:42:56Z</time>
      </trkpt>
      <trkpt lat="45.92892" lon="3.05765">
        <ele>542.80151367188</ele>
        <time>2011-03-26T14:43:02Z</time>
      </trkpt>
      <trkpt lat="45.929" lon="3.05741">
        <ele>543.28210449219</ele>
        <time>2011-03-26T14:43:10Z</time>
      </trkpt>
      <trkpt lat="45.92902" lon="3.05717">
        <ele>545.20483398438</ele>
        <time>2011-03-26T14:43:17Z</time>
      </trkpt>
      <trkpt lat="45.92899" lon="3.05691">
        <ele>548.5693359375</ele>
        <time>2011-03-26T14:43:24Z</time>
      </trkpt>
      <trkpt lat="45.92893" lon="3.05663">
        <ele>550.97265625</ele>
        <time>2011-03-26T14:43:30Z</time>
      </trkpt>
      <trkpt lat="45.92893" lon="3.0563">
        <ele>551.93408203125</ele>
        <time>2011-03-26T14:43:37Z</time>
      </trkpt>
      <trkpt lat="45.92896" lon="3.05599">
        <ele>554.81787109375</ele>
        <time>2011-03-26T14:43:43Z</time>
      </trkpt>
      <trkpt lat="45.92898" lon="3.05579">
        <ele>556.74072265625</ele>
        <time>2011-03-26T14:43:48Z</time>
      </trkpt>
      <trkpt lat="45.92904" lon="3.05563">
        <ele>558.66333007812</ele>
        <time>2011-03-26T14:43:53Z</time>
      </trkpt>
      <trkpt lat="45.9291" lon="3.05549">
        <ele>561.06665039062</ele>
        <time>2011-03-26T14:43:58Z</time>
      </trkpt>
      <trkpt lat="45.92918" lon="3.05534">
        <ele>561.06665039062</ele>
        <time>2011-03-26T14:44:03Z</time>
      </trkpt>
      <trkpt lat="45.92927" lon="3.05521">
        <ele>559.62475585938</ele>
        <time>2011-03-26T14:44:08Z</time>
      </trkpt>
      <trkpt lat="45.92937" lon="3.05498">
        <ele>558.66333007812</ele>
        <time>2011-03-26T14:44:16Z</time>
      </trkpt>
      <trkpt lat="45.92939" lon="3.05479">
        <ele>558.66333007812</ele>
        <time>2011-03-26T14:44:21Z</time>
      </trkpt>
      <trkpt lat="45.9294" lon="3.05458">
        <ele>558.18286132812</ele>
        <time>2011-03-26T14:44:26Z</time>
      </trkpt>
      <trkpt lat="45.92944" lon="3.05431">
        <ele>557.7021484375</ele>
        <time>2011-03-26T14:44:33Z</time>
      </trkpt>
      <trkpt lat="45.92952" lon="3.05412">
        <ele>557.7021484375</ele>
        <time>2011-03-26T14:44:38Z</time>
      </trkpt>
      <trkpt lat="45.92965" lon="3.05384">
        <ele>557.7021484375</ele>
        <time>2011-03-26T14:44:46Z</time>
      </trkpt>
      <trkpt lat="45.92971" lon="3.05364">
        <ele>559.62475585938</ele>
        <time>2011-03-26T14:44:52Z</time>
      </trkpt>
      <trkpt lat="45.92973" lon="3.0534">
        <ele>566.83447265625</ele>
        <time>2011-03-26T14:44:59Z</time>
      </trkpt>
      <trkpt lat="45.92971" lon="3.05314">
        <ele>571.16040039062</ele>
        <time>2011-03-26T14:45:07Z</time>
      </trkpt>
      <trkpt lat="45.92966" lon="3.05297">
        <ele>574.04443359375</ele>
        <time>2011-03-26T14:45:13Z</time>
      </trkpt>
      <trkpt lat="45.92957" lon="3.05283">
        <ele>575.005859375</ele>
        <time>2011-03-26T14:45:18Z</time>
      </trkpt>
      <trkpt lat="45.92947" lon="3.05262">
        <ele>576.92846679688</ele>
        <time>2011-03-26T14:45:25Z</time>
      </trkpt>
      <trkpt lat="45.92943" lon="3.0525">
        <ele>579.33154296875</ele>
        <time>2011-03-26T14:45:30Z</time>
      </trkpt>
      <trkpt lat="45.92936" lon="3.05233">
        <ele>581.73486328125</ele>
        <time>2011-03-26T14:45:37Z</time>
      </trkpt>
      <trkpt lat="45.9293" lon="3.05221">
        <ele>582.21557617188</ele>
        <time>2011-03-26T14:45:42Z</time>
      </trkpt>
      <trkpt lat="45.92921" lon="3.05216">
        <ele>583.1767578125</ele>
        <time>2011-03-26T14:45:46Z</time>
      </trkpt>
      <trkpt lat="45.92907" lon="3.05207">
        <ele>583.65747070312</ele>
        <time>2011-03-26T14:45:51Z</time>
      </trkpt>
      <trkpt lat="45.9289" lon="3.0519">
        <ele>585.580078125</ele>
        <time>2011-03-26T14:45:57Z</time>
      </trkpt>
      <trkpt lat="45.9288" lon="3.05175">
        <ele>586.54150390625</ele>
        <time>2011-03-26T14:46:02Z</time>
      </trkpt>
      <trkpt lat="45.92868" lon="3.05159">
        <ele>587.9833984375</ele>
        <time>2011-03-26T14:46:08Z</time>
      </trkpt>
      <trkpt lat="45.92851" lon="3.05154">
        <ele>585.099609375</ele>
        <time>2011-03-26T14:46:12Z</time>
      </trkpt>
      <trkpt lat="45.92832" lon="3.05155">
        <ele>584.13818359375</ele>
        <time>2011-03-26T14:46:16Z</time>
      </trkpt>
      <trkpt lat="45.92821" lon="3.05158">
        <ele>583.65747070312</ele>
        <time>2011-03-26T14:46:18Z</time>
      </trkpt>
      <trkpt lat="45.92779" lon="3.05184">
        <ele>581.25439453125</ele>
        <time>2011-03-26T14:46:25Z</time>
      </trkpt>
      <trkpt lat="45.92765" lon="3.05202">
        <ele>580.29296875</ele>
        <time>2011-03-26T14:46:29Z</time>
      </trkpt>
      <trkpt lat="45.92737" lon="3.0523">
        <ele>575.486328125</ele>
        <time>2011-03-26T14:46:36Z</time>
      </trkpt>
      <trkpt lat="45.92723" lon="3.05239">
        <ele>573.08325195312</ele>
        <time>2011-03-26T14:46:39Z</time>
      </trkpt>
      <trkpt lat="45.92702" lon="3.05241">
        <ele>570.19897460938</ele>
        <time>2011-03-26T14:46:43Z</time>
      </trkpt>
      <trkpt lat="45.92686" lon="3.05234">
        <ele>569.23779296875</ele>
        <time>2011-03-26T14:46:46Z</time>
      </trkpt>
      <trkpt lat="45.92656" lon="3.05213">
        <ele>564.91186523438</ele>
        <time>2011-03-26T14:46:51Z</time>
      </trkpt>
      <trkpt lat="45.92642" lon="3.05204">
        <ele>563.46997070312</ele>
        <time>2011-03-26T14:46:54Z</time>
      </trkpt>
      <trkpt lat="45.92628" lon="3.05203">
        <ele>563.46997070312</ele>
        <time>2011-03-26T14:46:58Z</time>
      </trkpt>
    </trkseg>
  </trk>
</gpx>